< < Back
Terminal Aerodrome Forecast


Current Version              Previous Versions:   1  2  3  4  5  6  7  8  9  

Terminal Aerodrome Forecast

192
FTUS42 KGSP 021416 AAB
TAFHKY
TAF AMD
KHKY 021416Z 0214/0312 00000KT 3SM BR OVC002
      TEMPO 0214/0215 30004KT 1SM BR BKN002
     FM021600 34005KT P6SM BKN060
     FM030100 04003KT P6SM BKN120
     FM030500 00000KT P6SM BKN025=



Latest METAR

556
SAUS70 KWBC 021500 RRC
MTRHKY
METAR KHKY 021453Z AUTO 00000KT 10SM CLR 12/07 A3023 RMK AO2 SLP228
T01170067 50008


USA.gov is the U.S. government's official web portal to all federal, state and local government web resources and services.